Puerto Barrios Airport
MGPB : now visible

Airfield :











YOU CAN JOIN US ON...

 
LOGIN :

Register | Disclaimer

   EN    FR    IT 

 









Legend :    VFR   Marginal VFR   IFR   Intensive IFR   Very Intensive IFR
Visi :
Ceiling :
>= 8 km
>= 3000ft
5 to 8 km
1000 to 3000 ft
1500m to 5 km
500 to 1000 ft
800 to 1500m
200 to 500 ft
< 800m
< 200 ft
Symbols :   Thunderstorms  Fog  Heavy snow  Heavy precipitations  Wind > 20 kt






- Airport Elevation : 33 ft
- IATA code : PBR


MGPB - Puerto Barrios

CURRENT METAR :
  • 112100Z 30008KT 9999 BKN016 28/25 Q1015 A2997 PCPN DIST NE/SSE/S

EXPIRED METARs :
  • 112000Z 36008KT 9999 SCT018TCU SCT070 28/25 Q1015 A2997 TCU N
  • 111900Z 30008KT 9999 BKN018TCU 29/25 Q1015 A2997 TCU N/SSE

TAF MGPB
Valid from the 11 at 18:00 until the 12 at 18:00 UTC


111700Z 1118/1218 30008KT 9999 BKN018 TX27/1120Z TN21/1212Z
TEMPO 1123/1210 8000 RADZ BKN018
BECMG 1201/1203 00000KT SCT016 SCT080
BECMG 1215/1217 36008K BKN016



MET'MAP, your aeronautical weather chart ! - Copyright ORBIFLY December 2007 - Disclaimer

ORBIFLY MET'MAP TEAM :

Programming & Development : Alexandra Zaïnal
Concept & original design : Baudouin d'Aumeries
Assistance for programming : Marc-Olivier Méhu
Technical & hardware support : Manuel Goepfert

Contact : metmap@orbifly.com




SOURCES & CREDITS :

   NOAA       Earth
Advisory